createdAt,value
2022-12-20T00:02:04.470Z,40.08
2022-12-20T00:04:34.641Z,43.13
2022-12-20T00:07:03.317Z,46.30
2022-12-20T00:09:34.027Z,39.50
2022-12-20T00:12:02.792Z,39.90
2022-12-20T00:14:31.525Z,35.90
2022-12-20T00:17:00.364Z,44.10
2022-12-20T00:19:29.276Z,40.72
2022-12-20T00:21:59.601Z,39.58
2022-12-20T00:24:28.270Z,39.15
2022-12-20T00:26:57.106Z,37.93
2022-12-20T00:29:25.819Z,37.83
2022-12-20T00:31:56.916Z,40.83
2022-12-20T00:34:25.674Z,42.20
2022-12-20T00:36:54.304Z,45.03
2022-12-20T00:39:25.604Z,36.58
2022-12-20T00:41:58.555Z,35.60
2022-12-20T00:44:29.440Z,43.78
2022-12-20T00:46:58.051Z,38.05
2022-12-20T00:49:26.755Z,44.63
2022-12-20T00:51:55.353Z,42.28
2022-12-20T00:54:25.655Z,41.10
2022-12-20T00:56:56.924Z,40.40
2022-12-20T00:59:25.653Z,42.38
2022-12-20T01:01:54.536Z,38.22
2022-12-20T01:04:24.087Z,39.90
2022-12-20T01:07:18.958Z,41.70
2022-12-20T01:09:49.272Z,42.88
2022-12-20T01:12:18.065Z,37.13
2022-12-20T01:14:49.625Z,39.42
2022-12-20T01:17:18.383Z,36.70
2022-12-20T01:19:50.065Z,42.47
2022-12-20T01:22:18.706Z,42.38
2022-12-20T01:24:48.859Z,37.58
2022-12-20T01:27:17.521Z,39.83
2022-12-20T01:29:47.125Z,42.40
2022-12-20T01:34:45.631Z,42.90
2022-12-20T01:37:15.962Z,43.95
2022-12-20T01:39:44.732Z,38.80
2022-12-20T01:42:16.667Z,43.20
2022-12-20T01:44:58.319Z,41.42
2022-12-20T01:47:31.127Z,41.80
2022-12-20T01:50:02.432Z,42.38
2022-12-20T01:52:34.419Z,42.50
2022-12-20T01:55:08.276Z,44.88
2022-12-20T01:57:43.845Z,43.65
2022-12-20T02:00:15.760Z,40.20
2022-12-20T02:02:45.168Z,42.97
2022-12-20T02:05:14.858Z,42.88
2022-12-20T02:07:48.958Z,39.35
2022-12-20T02:10:22.028Z,41.35
2022-12-20T02:12:59.879Z,42.63
2022-12-20T02:15:41.468Z,38.92
2022-12-20T02:18:25.026Z,41.90
2022-12-20T02:21:23.551Z,42.70
2022-12-20T02:24:19.605Z,39.10
2022-12-20T02:27:18.491Z,40.35
2022-12-20T02:30:14.394Z,34.50
2022-12-20T02:32:50.697Z,41.97
2022-12-20T02:35:23.618Z,41.53
2022-12-20T02:37:55.898Z,44.35
2022-12-20T02:40:29.741Z,41.88
2022-12-20T02:43:04.655Z,42.65
2022-12-20T02:45:37.609Z,43.78
2022-12-20T02:48:12.281Z,44.55
2022-12-20T02:50:45.064Z,43.97
2022-12-20T02:53:15.255Z,43.70
2022-12-20T02:55:52.221Z,43.30
2022-12-20T02:58:30.086Z,41.83
2022-12-20T03:01:04.665Z,47.00
2022-12-20T03:03:35.232Z,39.70
2022-12-20T03:06:04.027Z,41.95
2022-12-20T03:08:32.897Z,42.17
2022-12-20T03:11:04.491Z,41.42
2022-12-20T03:16:10.869Z,40.28
2022-12-20T03:18:40.525Z,43.10
2022-12-20T03:21:09.440Z,43.47
2022-12-20T03:23:38.214Z,45.13
2022-12-20T03:26:07.842Z,50.03
2022-12-20T03:28:41.740Z,51.50
2022-12-20T03:31:16.673Z,51.53
2022-12-20T03:33:52.786Z,49.83
2022-12-20T03:36:24.272Z,48.53
2022-12-20T03:38:57.679Z,54.85
2022-12-20T03:41:28.621Z,53.75
2022-12-20T03:43:57.459Z,50.45
2022-12-20T03:46:28.991Z,52.28
2022-12-20T03:48:58.323Z,52.00
2022-12-20T03:51:26.965Z,53.10
2022-12-20T03:53:55.879Z,52.40
2022-12-20T03:56:31.391Z,46.95
2022-12-20T03:59:03.068Z,55.03
2022-12-20T04:01:36.822Z,49.25
2022-12-20T04:04:06.998Z,46.20
2022-12-20T04:06:35.708Z,44.58
2022-12-20T04:09:04.339Z,48.38
2022-12-20T04:11:40.640Z,45.97
2022-12-20T04:14:18.772Z,49.28
2022-12-20T04:16:49.053Z,48.38
2022-12-20T04:19:18.298Z,51.70
2022-12-20T04:21:49.010Z,51.58
2022-12-20T04:24:22.706Z,46.35
2022-12-20T04:27:09.077Z,48.17
2022-12-20T04:29:38.022Z,55.20
2022-12-20T04:32:13.992Z,49.10
2022-12-20T04:34:42.764Z,47.00
2022-12-20T04:37:13.814Z,51.78
2022-12-20T04:39:51.350Z,60.10
2022-12-20T04:42:23.106Z,47.30
2022-12-20T04:47:31.240Z,53.58
2022-12-20T04:50:00.234Z,50.38
2022-12-20T04:52:48.153Z,57.85
2022-12-20T04:55:20.700Z,50.10
2022-12-20T04:57:49.511Z,50.20
2022-12-20T05:00:21.421Z,63.20
2022-12-20T05:02:58.231Z,54.58
2022-12-20T05:05:28.205Z,52.53
2022-12-20T05:07:58.684Z,54.08
2022-12-20T05:10:27.710Z,51.38
2022-12-20T05:12:58.301Z,51.50
2022-12-20T05:15:37.199Z,50.92
2022-12-20T05:18:07.653Z,52.78
2022-12-20T05:21:15.854Z,52.90
2022-12-20T05:24:04.718Z,46.80
2022-12-20T05:26:39.553Z,54.45
2022-12-20T05:29:09.173Z,52.65
2022-12-20T05:31:40.704Z,55.60
2022-12-20T05:34:11.021Z,54.22
2022-12-20T05:36:41.490Z,54.60
2022-12-20T05:39:11.792Z,55.42
2022-12-20T05:41:45.524Z,55.35
2022-12-20T05:44:15.401Z,55.42
2022-12-20T05:46:47.390Z,54.63
2022-12-20T05:49:23.315Z,57.70
2022-12-20T05:51:52.231Z,51.20
2022-12-20T05:54:26.475Z,50.70
2022-12-20T05:57:04.202Z,52.83
2022-12-20T05:59:43.128Z,48.95
2022-12-20T06:02:21.960Z,57.88
2022-12-20T06:04:57.921Z,59.17
2022-12-20T06:07:33.323Z,58.70
2022-12-20T06:10:02.502Z,55.20
2022-12-20T06:12:56.422Z,51.40
2022-12-20T06:15:29.677Z,64.03
2022-12-20T06:17:59.623Z,55.78
2022-12-20T06:20:32.139Z,53.70
2022-12-20T06:23:03.302Z,50.17
2022-12-20T06:25:42.584Z,53.30
2022-12-20T06:28:12.248Z,50.70
2022-12-20T06:30:42.834Z,49.92
2022-12-20T06:33:17.197Z,51.33
2022-12-20T06:35:47.321Z,49.78
2022-12-20T06:38:16.184Z,51.03
2022-12-20T06:40:44.993Z,45.22
2022-12-20T06:43:18.596Z,44.53
2022-12-20T06:45:50.768Z,46.03
2022-12-20T06:48:21.340Z,48.05
2022-12-20T06:50:56.124Z,47.83
2022-12-20T06:53:28.431Z,46.85
2022-12-20T06:55:57.127Z,45.78
2022-12-20T06:58:26.539Z,46.17
2022-12-20T07:00:56.667Z,42.58
2022-12-20T07:05:59.942Z,42.67
2022-12-20T07:08:29.164Z,46.08
2022-12-20T07:10:58.031Z,44.13
2022-12-20T07:13:28.624Z,50.07
2022-12-20T07:16:03.087Z,44.35
2022-12-20T07:18:35.820Z,43.80
2022-12-20T07:21:09.243Z,43.88
2022-12-20T07:23:38.140Z,46.42
2022-12-20T07:26:11.321Z,46.38
2022-12-20T07:28:44.896Z,43.05
2022-12-20T07:31:13.818Z,43.95
2022-12-20T07:33:42.400Z,40.35
2022-12-20T07:36:17.064Z,44.22
2022-12-20T07:38:49.201Z,45.60
2022-12-20T07:41:19.177Z,45.42
2022-12-20T07:43:48.243Z,42.22
2022-12-20T07:46:17.790Z,41.17
2022-12-20T07:48:49.067Z,40.75
2022-12-20T07:51:22.932Z,51.40
2022-12-20T07:53:57.051Z,120.45
2022-12-20T07:56:34.558Z,59.97
2022-12-20T07:59:06.148Z,44.35
2022-12-20T08:01:34.946Z,42.55
2022-12-20T08:04:17.565Z,78.28
2022-12-20T08:06:51.065Z,48.45
2022-12-20T08:09:20.647Z,49.63
2022-12-20T08:11:55.715Z,45.90
2022-12-20T08:14:27.042Z,45.03
2022-12-20T08:16:58.184Z,51.40
2022-12-20T08:19:32.008Z,48.22
2022-12-20T08:22:02.769Z,43.03
2022-12-20T08:24:39.893Z,42.75
2022-12-20T08:27:10.947Z,47.10
2022-12-20T08:29:42.661Z,44.30
2022-12-20T08:32:13.198Z,41.25
2022-12-20T08:34:41.917Z,42.08
2022-12-20T08:37:15.108Z,47.15
2022-12-20T08:39:44.201Z,44.28
2022-12-20T08:42:13.318Z,51.35
2022-12-20T08:44:46.329Z,49.25
2022-12-20T08:47:15.639Z,45.00
2022-12-20T08:49:48.114Z,46.22
2022-12-20T08:52:21.868Z,40.03
2022-12-20T08:54:50.586Z,44.63
2022-12-20T08:57:24.010Z,43.55
2022-12-20T08:59:52.637Z,42.00
2022-12-20T09:02:28.641Z,41.03
2022-12-20T09:05:05.107Z,41.72
2022-12-20T09:07:35.232Z,41.58
2022-12-20T09:10:06.170Z,46.47
2022-12-20T09:12:41.195Z,42.60
2022-12-20T09:15:13.050Z,42.83
2022-12-20T09:17:41.808Z,44.13
2022-12-20T09:20:13.619Z,41.38
2022-12-20T09:22:43.623Z,39.03
2022-12-20T09:25:14.029Z,39.08
2022-12-20T09:27:42.783Z,41.08
2022-12-20T09:30:12.268Z,40.92
2022-12-20T09:32:40.961Z,40.75
2022-12-20T09:35:19.358Z,39.28
2022-12-20T09:37:55.391Z,41.03
2022-12-20T09:40:42.001Z,38.03
2022-12-20T09:43:18.902Z,35.38
2022-12-20T09:45:52.348Z,35.53
2022-12-20T09:48:28.401Z,36.65
2022-12-20T09:51:12.830Z,38.28
2022-12-20T09:53:57.252Z,43.63
2022-12-20T09:56:37.613Z,38.88
2022-12-20T09:59:14.559Z,39.70
2022-12-20T10:01:50.326Z,37.88
2022-12-20T10:04:25.280Z,41.03
2022-12-20T10:07:08.235Z,37.72
2022-12-20T10:09:56.192Z,37.25
2022-12-20T10:12:35.144Z,34.65
2022-12-20T10:15:30.604Z,36.50
2022-12-20T10:18:18.679Z,40.20
2022-12-20T10:21:01.047Z,39.78
2022-12-20T10:23:35.076Z,38.67
2022-12-20T10:26:14.276Z,34.90
2022-12-20T10:28:53.809Z,39.25
2022-12-20T10:31:29.679Z,40.05
2022-12-20T10:34:00.579Z,35.38
2022-12-20T10:36:30.866Z,39.33
2022-12-20T10:39:04.204Z,36.97
2022-12-20T10:41:52.177Z,36.67
2022-12-20T10:44:29.381Z,36.08
2022-12-20T10:47:02.170Z,33.97
2022-12-20T10:49:34.751Z,29.95
2022-12-20T10:52:15.777Z,33.75
2022-12-20T10:54:46.098Z,30.63
2022-12-20T10:57:21.271Z,36.67
2022-12-20T10:59:54.213Z,33.20
2022-12-20T11:02:34.992Z,32.65
2022-12-20T11:05:26.463Z,39.08
2022-12-20T11:10:49.593Z,40.67
2022-12-20T11:13:29.465Z,28.05
2022-12-20T11:16:04.565Z,34.78
2022-12-20T11:18:45.033Z,34.60
2022-12-20T11:21:28.396Z,31.13
2022-12-20T11:24:10.452Z,46.58
2022-12-20T11:27:00.493Z,47.78
2022-12-20T11:29:46.581Z,35.30
2022-12-20T11:32:30.271Z,96.45
2022-12-20T11:35:13.156Z,43.25
2022-12-20T11:37:54.377Z,37.35
2022-12-20T11:40:32.668Z,33.20
2022-12-20T11:43:19.367Z,35.17
2022-12-20T11:46:00.140Z,40.83
2022-12-20T11:48:51.570Z,37.80
2022-12-20T11:51:27.012Z,38.35
2022-12-20T11:54:03.744Z,34.88
2022-12-20T11:56:43.939Z,42.65
2022-12-20T11:59:28.263Z,37.60
2022-12-20T12:02:12.730Z,33.05
2022-12-20T12:04:48.296Z,30.80
2022-12-20T12:07:23.462Z,40.78
2022-12-20T12:10:00.449Z,33.70
2022-12-20T12:12:32.719Z,30.95
2022-12-20T12:15:11.211Z,33.67
2022-12-20T12:17:49.890Z,34.95
2022-12-20T12:20:30.312Z,32.38
2022-12-20T12:23:06.878Z,40.92
2022-12-20T12:25:35.529Z,32.97
2022-12-20T12:28:06.344Z,34.80
2022-12-20T12:30:54.532Z,28.83
2022-12-20T12:33:38.640Z,43.97
2022-12-20T12:36:37.333Z,39.83
2022-12-20T12:39:46.137Z,36.53
2022-12-20T12:42:48.336Z,31.58
2022-12-20T12:45:25.443Z,28.55
2022-12-20T12:48:00.210Z,36.90
2022-12-20T12:50:33.847Z,34.15
2022-12-20T12:53:11.925Z,25.77
2022-12-20T12:55:46.989Z,30.75
2022-12-20T12:58:48.548Z,28.95
2022-12-20T13:02:00.780Z,30.20
2022-12-20T13:04:56.214Z,35.53
2022-12-20T13:08:24.533Z,40.08
2022-12-20T13:11:03.406Z,56.83
2022-12-20T13:13:32.441Z,27.57
2022-12-20T13:16:48.717Z,26.73
2022-12-20T13:19:35.426Z,26.83
2022-12-20T13:22:25.140Z,30.20
2022-12-20T13:27:41.427Z,29.13
2022-12-20T13:30:26.256Z,25.65
2022-12-20T13:33:23.585Z,24.70
2022-12-20T13:36:27.475Z,28.02
2022-12-20T13:39:03.942Z,34.20
2022-12-20T13:41:45.317Z,29.60
2022-12-20T13:44:41.579Z,34.03
2022-12-20T13:47:34.548Z,29.30
2022-12-20T13:50:19.733Z,23.75
2022-12-20T13:52:49.547Z,25.30
2022-12-20T13:55:37.830Z,31.98
2022-12-20T13:58:20.010Z,27.15
2022-12-20T14:00:49.614Z,29.40
2022-12-20T14:03:26.903Z,27.77
2022-12-20T14:05:59.458Z,30.55
2022-12-20T14:08:34.353Z,31.08
2022-12-20T14:11:11.110Z,28.27
2022-12-20T14:13:47.406Z,33.20
2022-12-20T14:16:22.900Z,36.67
2022-12-20T14:18:52.491Z,34.72
2022-12-20T14:21:23.785Z,30.30
2022-12-20T14:23:54.466Z,39.45
2022-12-20T14:26:28.945Z,194.90
2022-12-20T14:29:01.490Z,79.57
2022-12-20T14:31:36.661Z,43.55
2022-12-20T14:34:08.941Z,48.45
2022-12-20T14:36:38.471Z,89.78
2022-12-20T14:39:26.312Z,38.72
2022-12-20T14:42:03.293Z,34.40
2022-12-20T14:44:34.523Z,39.55
2022-12-20T14:47:06.844Z,38.55
2022-12-20T14:49:39.861Z,39.28
2022-12-20T14:52:17.034Z,45.92
2022-12-20T14:57:42.107Z,44.25
2022-12-20T15:00:29.419Z,48.55
2022-12-20T15:03:13.036Z,45.85
2022-12-20T15:05:49.028Z,54.35
2022-12-20T15:08:21.940Z,52.55
2022-12-20T15:10:54.487Z,64.32
2022-12-20T15:13:29.614Z,57.83
2022-12-20T15:16:05.008Z,55.70
2022-12-20T15:18:33.850Z,60.03
2022-12-20T15:21:10.095Z,53.25
2022-12-20T15:23:42.980Z,59.65
2022-12-20T15:26:17.277Z,39.33
2022-12-20T15:28:46.147Z,37.63
2022-12-20T15:31:19.528Z,44.77
2022-12-20T15:33:49.027Z,36.33
2022-12-20T15:36:22.508Z,61.83
2022-12-20T15:39:12.130Z,94.95
2022-12-20T15:41:48.629Z,56.50
2022-12-20T15:44:24.002Z,55.00
2022-12-20T15:46:57.784Z,48.63
2022-12-20T15:49:33.644Z,79.78
2022-12-20T15:52:02.359Z,65.97
2022-12-20T15:54:38.073Z,54.67
2022-12-20T15:57:08.648Z,49.97
2022-12-20T16:00:00.323Z,61.92
2022-12-20T16:02:32.850Z,50.90
2022-12-20T16:05:01.835Z,94.22
2022-12-20T16:07:32.779Z,49.13
2022-12-20T16:10:01.620Z,42.05
2022-12-20T16:12:34.725Z,45.40
2022-12-20T16:15:05.067Z,49.45
2022-12-20T16:17:39.217Z,72.65
2022-12-20T16:20:10.049Z,62.85
2022-12-20T16:22:38.757Z,82.93
2022-12-20T16:25:08.253Z,87.93
2022-12-20T16:27:36.873Z,81.22
2022-12-20T16:30:06.898Z,101.22
2022-12-20T16:32:40.833Z,57.30
2022-12-20T16:35:26.047Z,64.80
2022-12-20T16:37:55.779Z,49.17
2022-12-20T16:42:58.011Z,56.15
2022-12-20T16:45:30.785Z,61.15
2022-12-20T16:48:02.161Z,59.70
2022-12-20T16:50:36.075Z,45.13
2022-12-20T16:53:07.565Z,67.28
2022-12-20T16:55:39.970Z,53.15
2022-12-20T16:58:12.864Z,51.97
2022-12-20T17:00:43.565Z,47.80
2022-12-20T17:03:16.922Z,57.60
2022-12-20T17:05:45.970Z,59.40
2022-12-20T17:11:03.247Z,52.35
2022-12-20T17:13:31.825Z,52.65
2022-12-20T17:16:09.449Z,57.20
2022-12-20T17:18:39.915Z,66.38
2022-12-20T17:21:24.016Z,52.17
2022-12-20T17:23:55.908Z,75.68
2022-12-20T17:26:29.082Z,57.35
2022-12-20T17:29:00.907Z,73.78
2022-12-20T17:31:33.889Z,53.53
2022-12-20T17:34:17.170Z,72.28
2022-12-20T17:36:49.735Z,54.58
2022-12-20T17:39:20.617Z,64.93
2022-12-20T17:41:52.512Z,62.83
2022-12-20T17:44:23.919Z,66.03
2022-12-20T17:46:56.576Z,84.53
2022-12-20T17:49:29.074Z,70.32
2022-12-20T17:52:00.624Z,68.85
2022-12-20T17:54:39.298Z,66.80
2022-12-20T17:57:17.198Z,66.72
2022-12-20T17:59:49.908Z,61.05
2022-12-20T18:02:23.112Z,117.75
2022-12-20T18:04:58.278Z,97.72
2022-12-20T18:07:27.130Z,61.65
2022-12-20T18:09:57.866Z,118.27
2022-12-20T18:12:26.685Z,153.90
2022-12-20T18:14:55.885Z,232.10
2022-12-20T18:17:26.513Z,124.20
2022-12-20T18:19:57.056Z,148.73
2022-12-20T18:22:25.875Z,119.20
2022-12-20T18:24:59.720Z,215.87
2022-12-20T18:27:42.564Z,103.32
2022-12-20T18:30:13.531Z,98.35
2022-12-20T18:32:49.649Z,117.18
2022-12-20T18:35:30.388Z,93.10
2022-12-20T18:38:02.150Z,174.38
2022-12-20T18:40:44.689Z,66.30
2022-12-20T18:43:46.149Z,148.70
2022-12-20T18:47:19.415Z,87.55
2022-12-20T18:54:12.684Z,110.07
2022-12-20T18:56:41.551Z,85.68
2022-12-20T18:59:12.385Z,98.32
2022-12-20T19:01:49.424Z,91.32
2022-12-20T19:04:24.896Z,98.63
2022-12-20T19:07:05.678Z,69.07
2022-12-20T19:09:36.963Z,95.22
2022-12-20T19:12:06.623Z,95.10
2022-12-20T19:14:40.611Z,69.18
2022-12-20T19:17:11.234Z,100.03
2022-12-20T19:19:41.064Z,137.57
2022-12-20T19:22:16.540Z,60.70
2022-12-20T19:24:48.267Z,84.05
2022-12-20T19:27:17.153Z,64.68
2022-12-20T19:29:53.626Z,76.73
2022-12-20T19:32:22.513Z,82.85
2022-12-20T19:34:56.439Z,82.90
2022-12-20T19:37:31.922Z,69.53
2022-12-20T19:40:06.298Z,63.93
2022-12-20T19:42:35.308Z,92.10
2022-12-20T19:45:04.532Z,76.97
2022-12-20T19:47:36.384Z,65.20
2022-12-20T19:50:08.923Z,80.43
2022-12-20T19:52:41.499Z,80.32
2022-12-20T19:55:12.026Z,78.88
2022-12-20T19:57:48.183Z,77.45
2022-12-20T20:00:23.032Z,76.22
2022-12-20T20:02:54.356Z,83.50
2022-12-20T20:05:29.035Z,91.53
2022-12-20T20:08:02.145Z,75.97
2022-12-20T20:10:39.425Z,86.50
2022-12-20T20:13:13.391Z,90.78
2022-12-20T20:18:47.515Z,104.55
2022-12-20T20:21:21.463Z,93.37
2022-12-20T20:24:02.078Z,112.13
2022-12-20T20:29:23.686Z,73.40
2022-12-20T20:31:54.144Z,61.63
2022-12-20T20:34:30.447Z,56.72
2022-12-20T20:37:03.828Z,66.28
2022-12-20T20:39:48.307Z,68.88
2022-12-20T20:42:23.478Z,117.03
2022-12-20T20:45:01.825Z,89.80
2022-12-20T20:47:33.772Z,118.30
2022-12-20T20:50:11.112Z,78.28
2022-12-20T20:52:45.964Z,77.00
2022-12-20T20:55:24.795Z,75.03
2022-12-20T20:57:59.312Z,68.78
2022-12-20T21:00:35.062Z,48.55
2022-12-20T21:03:05.735Z,77.65
2022-12-20T21:06:32.890Z,67.63
2022-12-20T21:08:27.073Z,68.75
2022-12-20T21:11:00.117Z,68.77
2022-12-20T21:13:33.784Z,90.05
2022-12-20T21:16:23.550Z,103.57
2022-12-20T21:21:47.705Z,59.50
2022-12-20T21:24:22.581Z,55.00
2022-12-20T21:27:09.570Z,53.40
2022-12-20T21:29:42.408Z,68.85
2022-12-20T21:32:17.258Z,50.70
2022-12-20T21:34:59.786Z,59.03
2022-12-20T21:37:49.936Z,50.17
2022-12-20T21:40:21.609Z,46.03
2022-12-20T21:42:51.758Z,47.65
2022-12-20T21:45:39.211Z,49.92
2022-12-20T21:48:18.135Z,41.08
2022-12-20T21:51:09.155Z,41.80
2022-12-20T21:53:52.153Z,43.83
2022-12-20T21:56:53.861Z,40.60
2022-12-20T21:59:33.961Z,42.65
2022-12-20T22:02:16.412Z,39.70
2022-12-20T22:05:09.157Z,54.58
2022-12-20T22:07:50.393Z,41.95
2022-12-20T22:10:24.325Z,37.63
2022-12-20T22:13:02.267Z,45.05
2022-12-20T22:18:43.667Z,47.10
2022-12-20T22:21:14.160Z,49.72
2022-12-20T22:23:53.334Z,53.75
2022-12-20T22:26:26.583Z,54.47
2022-12-20T22:29:05.243Z,56.95
2022-12-20T22:31:56.682Z,54.40
2022-12-20T22:34:37.463Z,60.65
2022-12-20T22:37:19.691Z,53.13
2022-12-20T22:39:51.064Z,44.42
2022-12-20T22:42:25.204Z,53.35
2022-12-20T22:44:56.398Z,61.97
2022-12-20T22:47:30.380Z,65.85
2022-12-20T22:49:59.298Z,62.55
2022-12-20T22:52:34.913Z,55.53
2022-12-20T22:55:14.307Z,53.83
2022-12-20T22:57:43.147Z,51.55
2022-12-20T23:02:54.420Z,56.30
2022-12-20T23:05:23.745Z,45.75
2022-12-20T23:07:57.349Z,52.25
2022-12-20T23:10:47.503Z,53.35
2022-12-20T23:13:36.465Z,55.60
2022-12-20T23:16:05.517Z,66.35
2022-12-20T23:18:35.748Z,51.17
2022-12-20T23:21:24.866Z,52.75
2022-12-20T23:23:56.351Z,53.33
2022-12-20T23:26:33.874Z,50.88
2022-12-20T23:29:08.414Z,48.13
2022-12-20T23:31:44.509Z,52.30
2022-12-20T23:34:20.898Z,80.82
2022-12-20T23:36:52.791Z,68.57
2022-12-20T23:39:25.807Z,55.67
2022-12-20T23:41:54.945Z,80.28
2022-12-20T23:44:24.285Z,69.30
2022-12-20T23:46:55.367Z,68.15
2022-12-20T23:49:36.239Z,81.43
2022-12-20T23:52:06.782Z,88.60
2022-12-20T23:54:37.588Z,70.30
2022-12-20T23:57:08.622Z,65.20
